createdAt,value
2018-03-28T00:02:19.958Z,48.50
2018-03-28T00:04:49.817Z,48.50
2018-03-28T00:07:19.007Z,48.50
2018-03-28T00:09:48.890Z,48.30
2018-03-28T00:12:17.966Z,48.20
2018-03-28T00:14:47.154Z,48.30
2018-03-28T00:17:17.015Z,48.60
2018-03-28T00:19:46.082Z,48.60
2018-03-28T00:22:15.229Z,48.80
2018-03-28T00:24:44.299Z,48.90
2018-03-28T00:27:13.402Z,49.10
2018-03-28T00:29:42.490Z,49.20
2018-03-28T00:32:11.561Z,49.20
2018-03-28T00:34:41.454Z,49.50
2018-03-28T00:37:11.343Z,49.30
2018-03-28T00:39:40.657Z,49.40
2018-03-28T00:42:09.721Z,49.40
2018-03-28T00:44:39.577Z,49.90
2018-03-28T00:47:09.848Z,49.80
2018-03-28T00:49:39.685Z,50.60
2018-03-28T00:52:08.775Z,50.00
2018-03-28T00:54:38.670Z,49.90
2018-03-28T00:57:07.735Z,49.90
2018-03-28T00:59:36.814Z,49.60
2018-03-28T01:02:05.899Z,49.90
2018-03-28T01:04:34.991Z,49.70
2018-03-28T01:07:04.825Z,50.20
2018-03-28T01:09:34.653Z,50.10
2018-03-28T01:12:04.550Z,49.80
2018-03-28T01:14:33.633Z,49.80
2018-03-28T01:17:02.762Z,50.20
2018-03-28T01:19:31.892Z,49.90
2018-03-28T01:22:00.967Z,50.30
2018-03-28T01:24:30.133Z,50.30
2018-03-28T01:26:59.970Z,50.30
2018-03-28T01:29:29.889Z,50.30
2018-03-28T01:31:59.730Z,50.40
2018-03-28T01:34:28.838Z,50.30
2018-03-28T01:36:58.673Z,50.40
2018-03-28T01:39:27.763Z,50.30
2018-03-28T01:41:57.598Z,50.30
2018-03-28T01:44:27.567Z,50.40
2018-03-28T01:46:56.826Z,50.30
2018-03-28T01:49:26.678Z,50.50
2018-03-28T01:51:56.561Z,50.50
2018-03-28T01:54:25.646Z,50.50
2018-03-28T01:56:54.778Z,50.90
2018-03-28T01:59:23.849Z,51.00
2018-03-28T02:01:52.994Z,50.70
2018-03-28T02:04:22.069Z,50.90
2018-03-28T02:06:51.153Z,50.90
2018-03-28T02:09:20.994Z,51.10
2018-03-28T02:11:50.864Z,51.30
2018-03-28T02:14:19.927Z,51.30
2018-03-28T02:16:49.768Z,51.70
2018-03-28T02:19:18.846Z,51.70
2018-03-28T02:21:47.927Z,51.60
2018-03-28T02:24:17.002Z,51.60
2018-03-28T02:26:46.617Z,51.60
2018-03-28T02:29:15.766Z,51.70
2018-03-28T02:31:44.847Z,51.70
2018-03-28T02:34:13.958Z,51.80
2018-03-28T02:36:43.060Z,51.90
2018-03-28T02:39:12.236Z,51.90
2018-03-28T02:41:41.312Z,52.10
2018-03-28T02:44:10.396Z,51.70
2018-03-28T02:46:39.470Z,51.90
2018-03-28T02:49:08.550Z,51.70
2018-03-28T02:51:37.683Z,51.80
2018-03-28T02:54:06.855Z,51.80
2018-03-28T02:56:35.946Z,51.70
2018-03-28T02:59:05.955Z,51.90
2018-03-28T03:01:35.830Z,52.00
2018-03-28T03:04:04.907Z,52.00
2018-03-28T03:06:34.862Z,52.10
2018-03-28T03:09:03.926Z,52.10
2018-03-28T03:11:33.085Z,52.30
2018-03-28T03:14:02.162Z,52.30
2018-03-28T03:16:32.039Z,52.60
2018-03-28T03:19:01.109Z,52.50
2018-03-28T03:21:30.944Z,52.60
2018-03-28T03:24:00.015Z,52.60
2018-03-28T03:26:29.117Z,52.30
2018-03-28T03:28:58.442Z,52.30
2018-03-28T03:31:27.586Z,52.30
2018-03-28T03:33:56.662Z,52.40
2018-03-28T03:36:25.767Z,52.70
2018-03-28T03:38:54.870Z,52.60
2018-03-28T03:41:23.941Z,52.80
2018-03-28T03:43:53.017Z,53.00
2018-03-28T03:46:22.909Z,53.30
2018-03-28T03:48:51.978Z,53.20
2018-03-28T03:51:21.045Z,53.20
2018-03-28T03:53:50.146Z,53.20
2018-03-28T03:56:19.222Z,53.80
2018-03-28T03:58:48.397Z,53.40
2018-03-28T04:01:17.448Z,53.50
2018-03-28T04:03:46.523Z,54.30
2018-03-28T04:06:16.370Z,53.70
2018-03-28T04:08:45.474Z,53.70
2018-03-28T04:11:14.739Z,53.90
2018-03-28T04:13:43.823Z,53.80
2018-03-28T04:16:12.946Z,53.90
2018-03-28T04:18:42.040Z,53.80
2018-03-28T04:21:11.166Z,53.90
2018-03-28T04:23:40.243Z,54.00
2018-03-28T04:26:09.314Z,54.00
2018-03-28T04:28:38.431Z,54.10
2018-03-28T04:31:07.506Z,54.10
2018-03-28T04:33:36.580Z,54.20
2018-03-28T04:36:05.650Z,54.40
2018-03-28T04:38:34.728Z,54.30
2018-03-28T04:41:03.806Z,54.30
2018-03-28T04:43:32.925Z,54.70
2018-03-28T04:46:02.003Z,55.00
2018-03-28T04:48:31.074Z,55.10
2018-03-28T04:51:00.146Z,54.70
2018-03-28T04:53:29.213Z,54.70
2018-03-28T04:55:58.290Z,54.60
2018-03-28T04:58:27.430Z,55.10
2018-03-28T05:00:56.506Z,55.10
2018-03-28T05:03:25.579Z,55.70
2018-03-28T05:05:55.538Z,55.00
2018-03-28T05:08:24.610Z,55.00
2018-03-28T05:10:53.695Z,55.10
2018-03-28T05:13:22.767Z,55.10
2018-03-28T05:15:52.091Z,55.10
2018-03-28T05:18:21.166Z,55.10
2018-03-28T05:20:51.026Z,55.20
2018-03-28T05:23:20.136Z,55.10
2018-03-28T05:25:49.211Z,55.10
2018-03-28T05:28:19.050Z,55.10
2018-03-28T05:30:48.885Z,55.10
2018-03-28T05:33:17.957Z,55.10
2018-03-28T05:35:47.083Z,55.10
2018-03-28T05:38:17.047Z,55.40
2018-03-28T05:40:46.120Z,55.40
2018-03-28T05:43:15.962Z,56.20
2018-03-28T05:45:45.802Z,55.70
2018-03-28T05:48:14.947Z,55.70
2018-03-28T05:50:44.066Z,55.90
2018-03-28T05:53:13.135Z,56.00
2018-03-28T05:55:42.209Z,56.90
2018-03-28T05:58:11.367Z,56.80
2018-03-28T06:00:40.454Z,57.30
2018-03-28T06:03:10.405Z,58.40
2018-03-28T06:05:39.475Z,58.40
2018-03-28T06:08:08.546Z,59.40
2018-03-28T06:10:37.615Z,59.40
2018-03-28T06:13:07.453Z,60.50
2018-03-28T06:15:36.602Z,60.50
2018-03-28T06:18:05.681Z,61.10
2018-03-28T06:20:34.757Z,62.20
2018-03-28T06:23:04.602Z,62.90
2018-03-28T06:25:33.682Z,62.90
2018-03-28T06:28:02.754Z,63.10
2018-03-28T06:30:31.890Z,63.00
2018-03-28T06:33:00.965Z,63.60
2018-03-28T06:35:30.033Z,63.90
2018-03-28T06:37:59.164Z,64.10
2018-03-28T06:40:28.276Z,64.10
2018-03-28T06:42:57.402Z,64.20
2018-03-28T06:45:26.479Z,64.10
2018-03-28T06:47:56.314Z,64.20
2018-03-28T06:50:26.151Z,64.10
2018-03-28T06:52:56.041Z,64.10
2018-03-28T06:55:25.150Z,64.10
2018-03-28T06:57:55.724Z,64.20
2018-03-28T07:00:25.561Z,64.20
2018-03-28T07:02:55.434Z,64.20
2018-03-28T07:05:24.532Z,64.20
2018-03-28T07:07:53.614Z,64.10
2018-03-28T07:10:22.689Z,64.20
2018-03-28T07:12:51.763Z,64.50
2018-03-28T07:15:20.838Z,64.30
2018-03-28T07:17:50.699Z,65.40
2018-03-28T07:20:19.766Z,65.40
2018-03-28T07:22:49.837Z,65.70
2018-03-28T07:25:18.902Z,65.50
2018-03-28T07:27:48.766Z,65.70
2018-03-28T07:30:17.843Z,65.70
2018-03-28T07:32:47.741Z,65.60
2018-03-28T07:35:16.853Z,65.60
2018-03-28T07:37:45.922Z,65.70
2018-03-28T07:40:14.997Z,65.80
2018-03-28T07:42:44.842Z,65.30
2018-03-28T07:45:14.677Z,64.90
2018-03-28T07:47:43.752Z,64.90
2018-03-28T07:50:12.885Z,65.00
2018-03-28T07:52:42.722Z,66.00
2018-03-28T07:55:12.065Z,66.00
2018-03-28T07:57:41.166Z,66.30
2018-03-28T08:00:10.275Z,66.20
2018-03-28T08:02:39.345Z,65.90
2018-03-28T08:05:08.417Z,66.90
2018-03-28T08:07:37.526Z,66.40
2018-03-28T08:10:06.592Z,66.80
2018-03-28T08:12:36.486Z,66.60
2018-03-28T08:15:05.727Z,66.60
2018-03-28T08:17:35.585Z,66.00
2018-03-28T08:20:04.717Z,66.00
2018-03-28T08:22:33.810Z,66.80
2018-03-28T08:25:02.931Z,66.90
2018-03-28T08:27:32.001Z,67.10
2018-03-28T08:30:01.853Z,67.30
2018-03-28T08:32:30.925Z,67.30
2018-03-28T08:35:00.011Z,67.40
2018-03-28T08:37:29.082Z,67.90
2018-03-28T08:39:58.157Z,67.30
2018-03-28T08:42:28.040Z,66.90
2018-03-28T08:44:57.885Z,66.90
2018-03-28T08:47:27.014Z,66.40
2018-03-28T08:49:56.158Z,66.40
2018-03-28T08:52:25.224Z,66.40
2018-03-28T08:54:54.297Z,66.50
2018-03-28T08:57:23.383Z,66.90
2018-03-28T08:59:52.466Z,66.70
2018-03-28T09:02:21.618Z,66.60
2018-03-28T09:04:50.702Z,66.80
2018-03-28T09:07:20.554Z,66.70
2018-03-28T09:09:49.630Z,66.60
2018-03-28T09:12:18.712Z,66.60
2018-03-28T09:14:48.614Z,65.90
2018-03-28T09:17:17.762Z,66.00
2018-03-28T09:19:46.922Z,65.90
2018-03-28T09:22:16.897Z,66.10
2018-03-28T09:24:45.982Z,66.00
2018-03-28T09:27:15.057Z,65.50
2018-03-28T09:29:44.911Z,66.20
2018-03-28T09:32:14.045Z,66.20
2018-03-28T09:34:43.551Z,66.00
2018-03-28T09:37:12.695Z,65.90
2018-03-28T09:39:41.770Z,65.90
2018-03-28T09:42:11.116Z,65.70
2018-03-28T09:44:40.193Z,65.60
2018-03-28T09:47:09.327Z,65.30
2018-03-28T09:49:38.402Z,66.00
2018-03-28T09:52:07.480Z,65.90
2018-03-28T09:54:37.378Z,67.80
2018-03-28T09:57:06.566Z,67.10
2018-03-28T09:59:35.684Z,67.60
2018-03-28T10:02:10.679Z,67.30
2018-03-28T10:04:45.361Z,67.30
2018-03-28T10:07:14.435Z,67.20
2018-03-28T10:09:44.362Z,66.90
2018-03-28T10:12:14.193Z,66.90
2018-03-28T10:14:44.026Z,66.60
2018-03-28T10:17:13.862Z,66.50
2018-03-28T10:19:42.939Z,66.50
2018-03-28T10:22:12.014Z,66.70
2018-03-28T10:24:41.087Z,66.60
2018-03-28T10:27:10.926Z,66.50
2018-03-28T10:29:39.993Z,66.50
2018-03-28T10:32:09.069Z,67.10
2018-03-28T10:34:38.138Z,66.60
2018-03-28T10:37:07.978Z,66.00
2018-03-28T10:39:37.778Z,66.00
2018-03-28T10:42:06.883Z,65.90
2018-03-28T10:44:35.951Z,65.30
2018-03-28T10:47:05.021Z,65.50
2018-03-28T10:49:35.078Z,65.50
2018-03-28T10:52:04.146Z,65.40
2018-03-28T10:54:33.414Z,65.70
2018-03-28T10:57:02.509Z,65.00
2018-03-28T10:59:31.614Z,64.90
2018-03-28T11:02:00.682Z,65.00
2018-03-28T11:04:29.791Z,65.20
2018-03-28T11:07:00.403Z,65.40
2018-03-28T11:09:29.548Z,65.40
2018-03-28T11:11:58.617Z,65.40
2018-03-28T11:14:27.719Z,65.90
2018-03-28T11:16:56.849Z,66.20
2018-03-28T11:19:25.922Z,65.50
2018-03-28T11:21:55.754Z,66.10
2018-03-28T11:24:25.646Z,66.50
2018-03-28T11:26:54.689Z,66.50
2018-03-28T11:29:24.522Z,66.10
2018-03-28T11:31:53.594Z,66.10
2018-03-28T11:34:22.661Z,65.50
2018-03-28T11:36:51.734Z,65.00
2018-03-28T11:39:21.618Z,65.10
2018-03-28T11:41:50.690Z,65.00
2018-03-28T11:44:19.768Z,65.10
2018-03-28T11:46:49.025Z,65.30
2018-03-28T11:49:18.099Z,65.00
2018-03-28T11:51:47.942Z,64.90
2018-03-28T11:54:17.783Z,64.70
2018-03-28T11:56:46.901Z,64.70
2018-03-28T11:59:15.981Z,64.60
2018-03-28T12:01:45.882Z,64.30
2018-03-28T12:04:14.954Z,64.30
2018-03-28T12:06:44.028Z,64.80
2018-03-28T12:09:13.934Z,64.00
2018-03-28T12:11:42.998Z,64.00
2018-03-28T12:14:12.076Z,63.70
2018-03-28T12:16:41.949Z,64.20
2018-03-28T12:19:11.081Z,64.20
2018-03-28T12:21:40.146Z,63.70
2018-03-28T12:24:09.219Z,63.90
2018-03-28T12:26:38.314Z,63.50
2018-03-28T12:29:07.433Z,63.70
2018-03-28T12:31:36.504Z,63.90
2018-03-28T12:34:05.574Z,64.20
2018-03-28T12:36:35.429Z,64.70
2018-03-28T12:39:04.514Z,65.40
2018-03-28T12:41:34.351Z,64.80
2018-03-28T12:44:03.430Z,64.80
2018-03-28T12:46:32.505Z,64.80
2018-03-28T12:49:01.586Z,64.40
2018-03-28T12:51:31.447Z,64.90
2018-03-28T12:54:00.614Z,64.80
2018-03-28T12:56:30.483Z,65.40
2018-03-28T12:58:59.699Z,64.70
2018-03-28T13:01:28.771Z,64.90
2018-03-28T13:03:58.643Z,64.80
2018-03-28T13:06:27.722Z,64.80
2018-03-28T13:08:56.854Z,64.80
2018-03-28T13:11:25.914Z,64.80
2018-03-28T13:13:54.985Z,63.90
2018-03-28T13:16:25.353Z,64.70
2018-03-28T13:18:54.615Z,66.00
2018-03-28T13:21:23.686Z,64.80
2018-03-28T13:23:53.778Z,64.70
2018-03-28T13:26:22.850Z,65.20
2018-03-28T13:28:52.693Z,66.20
2018-03-28T13:31:21.787Z,66.30
2018-03-28T13:33:50.918Z,65.50
2018-03-28T13:36:20.025Z,64.70
2018-03-28T13:38:49.131Z,64.90
2018-03-28T13:41:18.219Z,64.80
2018-03-28T13:43:48.078Z,64.80
2018-03-28T13:46:17.185Z,64.80
2018-03-28T13:48:46.281Z,64.90
2018-03-28T13:51:16.109Z,64.90
2018-03-28T13:53:45.327Z,65.00
2018-03-28T13:56:15.138Z,65.00
2018-03-28T13:58:44.970Z,63.60
2018-03-28T14:01:14.798Z,63.10
2018-03-28T14:03:44.639Z,64.20
2018-03-28T14:06:13.730Z,64.20
2018-03-28T14:08:44.274Z,63.10
2018-03-28T14:11:13.406Z,63.10
2018-03-28T14:13:42.473Z,63.70
2018-03-28T14:16:11.533Z,63.90
2018-03-28T14:18:40.707Z,64.20
2018-03-28T14:21:09.794Z,65.00
2018-03-28T14:23:38.878Z,63.50
2018-03-28T14:26:07.938Z,64.80
2018-03-28T14:28:37.829Z,65.60
2018-03-28T14:31:07.217Z,65.00
2018-03-28T14:33:36.278Z,65.30
2018-03-28T14:36:05.338Z,64.90
2018-03-28T14:38:34.405Z,65.20
2018-03-28T14:41:03.575Z,65.10
2018-03-28T14:43:32.657Z,65.40
2018-03-28T14:46:01.722Z,65.10
2018-03-28T14:48:30.856Z,64.80
2018-03-28T14:51:00.690Z,66.70
2018-03-28T14:53:30.521Z,66.10
2018-03-28T14:56:00.357Z,65.00
2018-03-28T14:58:29.417Z,65.00
2018-03-28T15:00:59.402Z,65.00
2018-03-28T15:03:28.629Z,64.50
2018-03-28T15:05:57.879Z,64.00
2018-03-28T15:08:26.994Z,64.50
2018-03-28T15:10:56.066Z,65.00
2018-03-28T15:13:25.138Z,64.50
2018-03-28T15:15:54.997Z,64.20
2018-03-28T15:18:24.134Z,64.20
2018-03-28T15:20:53.961Z,64.90
2018-03-28T15:23:23.070Z,64.80
2018-03-28T15:25:52.138Z,64.90
2018-03-28T15:28:21.977Z,65.00
2018-03-28T15:30:51.042Z,64.80
2018-03-28T15:33:20.110Z,64.90
2018-03-28T15:35:49.172Z,66.00
2018-03-28T15:38:18.321Z,65.00
2018-03-28T15:40:47.417Z,65.70
2018-03-28T15:43:16.524Z,64.10
2018-03-28T15:45:46.356Z,64.90
2018-03-28T15:48:15.418Z,64.90
2018-03-28T15:50:44.503Z,65.40
2018-03-28T15:53:13.567Z,66.20
2018-03-28T15:55:43.446Z,64.90
2018-03-28T15:58:12.509Z,64.80
2018-03-28T16:00:42.346Z,66.40
2018-03-28T16:03:12.177Z,66.50
2018-03-28T16:05:41.250Z,66.50
2018-03-28T16:08:10.312Z,66.20
2018-03-28T16:10:39.378Z,66.50
2018-03-28T16:13:08.558Z,66.30
2018-03-28T16:15:37.621Z,66.40
2018-03-28T16:18:07.527Z,67.30
2018-03-28T16:20:36.602Z,67.30
2018-03-28T16:23:05.670Z,67.30
2018-03-28T16:25:35.501Z,67.40
2018-03-28T16:28:05.325Z,66.90
2018-03-28T16:30:35.155Z,67.10
2018-03-28T16:33:04.994Z,67.80
2018-03-28T16:35:34.134Z,67.80
2018-03-28T16:38:03.199Z,67.80
2018-03-28T16:40:33.030Z,68.40
2018-03-28T16:43:02.865Z,68.20
2018-03-28T16:45:32.010Z,68.10
2018-03-28T16:48:01.885Z,68.40
2018-03-28T16:50:31.761Z,68.10
2018-03-28T16:53:00.830Z,68.10
2018-03-28T16:55:30.674Z,68.20
2018-03-28T16:57:59.761Z,68.20
2018-03-28T17:00:29.633Z,68.40
2018-03-28T17:02:58.718Z,68.40
2018-03-28T17:05:27.786Z,68.50
2018-03-28T17:07:56.851Z,68.60
2018-03-28T17:10:25.918Z,68.80
2018-03-28T17:12:55.781Z,69.40
2018-03-28T17:15:24.861Z,69.30
2018-03-28T17:17:54.749Z,69.40
2018-03-28T17:20:24.594Z,68.80
2018-03-28T17:22:53.723Z,68.80
2018-03-28T17:25:22.866Z,69.00
2018-03-28T17:27:52.119Z,69.40
2018-03-28T17:30:21.200Z,69.60
2018-03-28T17:32:50.323Z,69.00
2018-03-28T17:35:19.446Z,69.30
2018-03-28T17:37:48.521Z,69.30
2018-03-28T17:40:17.646Z,69.40
2018-03-28T17:42:46.714Z,69.40
2018-03-28T17:45:15.818Z,69.40
2018-03-28T17:47:45.670Z,69.50
2018-03-28T17:50:14.781Z,69.40
2018-03-28T17:52:44.363Z,69.40
2018-03-28T17:55:13.432Z,69.80
2018-03-28T17:57:42.520Z,69.70
2018-03-28T18:00:12.356Z,69.50
2018-03-28T18:02:41.434Z,69.50
2018-03-28T18:05:10.501Z,69.60
2018-03-28T18:07:39.582Z,69.70
2018-03-28T18:10:08.678Z,70.80
2018-03-28T18:12:38.538Z,70.20
2018-03-28T18:15:07.602Z,70.20
2018-03-28T18:17:36.666Z,70.10
2018-03-28T18:20:05.729Z,70.20
2018-03-28T18:22:35.572Z,70.20
2018-03-28T18:25:04.651Z,70.00
2018-03-28T18:27:33.765Z,70.20
2018-03-28T18:30:02.818Z,69.50
2018-03-28T18:32:31.913Z,70.20
2018-03-28T18:35:01.773Z,70.60
2018-03-28T18:37:30.840Z,70.60
2018-03-28T18:40:00.744Z,70.50
2018-03-28T18:42:30.788Z,70.50
2018-03-28T18:44:59.892Z,70.40
2018-03-28T18:47:28.954Z,70.90
2018-03-28T18:49:58.028Z,70.60
2018-03-28T18:52:27.872Z,70.60
2018-03-28T18:54:56.937Z,70.60
2018-03-28T18:57:26.069Z,70.30
2018-03-28T18:59:55.148Z,70.80
2018-03-28T19:02:24.279Z,70.80
2018-03-28T19:04:53.351Z,70.70
2018-03-28T19:07:22.456Z,70.80
2018-03-28T19:09:51.535Z,70.90
2018-03-28T19:12:21.417Z,70.90
2018-03-28T19:14:50.490Z,70.90
2018-03-28T19:17:19.566Z,71.00
2018-03-28T19:19:48.642Z,71.90
2018-03-28T19:22:17.716Z,71.00
2018-03-28T19:24:46.824Z,70.60
2018-03-28T19:27:15.900Z,71.20
2018-03-28T19:29:44.978Z,71.10
2018-03-28T19:32:14.047Z,71.10
2018-03-28T19:34:43.122Z,70.80
2018-03-28T19:37:12.255Z,71.20
2018-03-28T19:39:42.099Z,71.90
2018-03-28T19:42:11.175Z,71.90
2018-03-28T19:44:40.282Z,71.70
2018-03-28T19:47:09.509Z,71.70
2018-03-28T19:49:39.356Z,71.80
2018-03-28T19:52:09.279Z,72.10
2018-03-28T19:54:39.123Z,72.40
2018-03-28T19:57:08.201Z,72.40
2018-03-28T19:59:37.967Z,72.40
2018-03-28T20:02:07.078Z,72.20
2018-03-28T20:04:36.217Z,72.10
2018-03-28T20:07:05.295Z,72.10
2018-03-28T20:09:34.430Z,73.00
2018-03-28T20:12:03.511Z,72.10
2018-03-28T20:14:32.671Z,72.50
2018-03-28T20:17:01.746Z,73.00
2018-03-28T20:19:30.824Z,73.00
2018-03-28T20:22:00.663Z,73.10
2018-03-28T20:24:29.738Z,73.00
2018-03-28T20:26:58.820Z,73.10
2018-03-28T20:29:27.898Z,73.20
2018-03-28T20:31:56.970Z,73.60
2018-03-28T20:34:26.045Z,73.50
2018-03-28T20:36:55.181Z,73.80
2018-03-28T20:39:24.319Z,73.90
2018-03-28T20:41:54.162Z,74.20
2018-03-28T20:44:23.289Z,74.20
2018-03-28T20:46:53.094Z,74.20
2018-03-28T20:49:22.930Z,74.20
2018-03-28T20:51:52.003Z,74.20
2018-03-28T20:54:21.109Z,74.20
2018-03-28T20:56:50.181Z,74.20
2018-03-28T20:59:19.394Z,74.20
2018-03-28T21:01:48.475Z,74.20
2018-03-28T21:04:17.598Z,74.20
2018-03-28T21:06:46.709Z,74.20
2018-03-28T21:09:15.782Z,74.20
2018-03-28T21:11:45.671Z,74.30
2018-03-28T21:14:14.769Z,74.30
2018-03-28T21:16:43.841Z,74.30
2018-03-28T21:19:13.682Z,74.30
2018-03-28T21:21:43.550Z,74.20
2018-03-28T21:24:12.614Z,74.20
2018-03-28T21:26:42.582Z,74.90
2018-03-28T21:29:11.658Z,74.90
2018-03-28T21:31:41.493Z,75.20
2018-03-28T21:34:11.326Z,74.80
2018-03-28T21:36:40.385Z,74.60
2018-03-28T21:39:09.621Z,74.40
2018-03-28T21:41:38.682Z,74.80
2018-03-28T21:44:07.786Z,74.50
2018-03-28T21:46:36.936Z,75.00
2018-03-28T21:49:06.106Z,75.00
2018-03-28T21:51:35.164Z,74.80
2018-03-28T21:54:04.225Z,74.70
2018-03-28T21:56:33.289Z,74.30
2018-03-28T21:59:02.358Z,74.70
2018-03-28T22:01:31.421Z,75.00
2018-03-28T22:04:01.250Z,75.50
2018-03-28T22:06:31.087Z,75.70
2018-03-28T22:09:00.949Z,75.40
2018-03-28T22:11:30.009Z,75.40
2018-03-28T22:13:59.069Z,75.10
2018-03-28T22:16:28.134Z,75.00
2018-03-28T22:18:58.041Z,74.70
2018-03-28T22:21:27.115Z,74.80
2018-03-28T22:23:56.222Z,74.80
2018-03-28T22:26:25.314Z,75.40
2018-03-28T22:28:54.372Z,75.90
2018-03-28T22:31:23.442Z,75.10
2018-03-28T22:36:27.795Z,75.30
2018-03-28T22:38:56.869Z,75.00
2018-03-28T22:41:26.148Z,75.00
2018-03-28T22:43:55.354Z,75.20
2018-03-28T22:46:24.422Z,75.20
2018-03-28T22:48:54.253Z,75.50
2018-03-28T22:51:23.382Z,75.40
2018-03-28T22:53:52.446Z,75.90
2018-03-28T22:56:21.509Z,75.90
2018-03-28T22:58:50.574Z,76.00
2018-03-28T23:01:19.638Z,75.80
2018-03-28T23:03:48.734Z,75.90
2018-03-28T23:06:18.109Z,75.70
2018-03-28T23:08:47.173Z,75.50
2018-03-28T23:11:16.278Z,75.50
2018-03-28T23:13:45.380Z,75.50
2018-03-28T23:16:14.479Z,75.70
2018-03-28T23:18:43.576Z,76.30
2018-03-28T23:21:13.597Z,76.00
2018-03-28T23:23:43.515Z,76.10
2018-03-28T23:26:12.574Z,76.10
2018-03-28T23:28:41.643Z,76.00
2018-03-28T23:31:10.764Z,75.90
2018-03-28T23:33:40.631Z,75.90
2018-03-28T23:36:09.741Z,75.80
2018-03-28T23:38:38.838Z,75.70
2018-03-28T23:41:07.970Z,75.90
2018-03-28T23:43:37.038Z,75.70
2018-03-28T23:46:06.926Z,76.00
2018-03-28T23:48:35.986Z,76.00
2018-03-28T23:51:05.814Z,76.20
2018-03-28T23:53:35.650Z,76.60
2018-03-28T23:56:04.709Z,76.60
2018-03-28T23:58:33.769Z,76.70
